Time;durP1;ratioP1;P1;durP2;ratioP2;P2;SDS_P1;SDS_P2;PMS_P1;PMS_P2;Temp;Humidity;BMP_temperature;BMP_pressure;BME280_temperature;BME280_humidity;BME280_pressure;Samples;Min_cycle;Max_cycle;Signal;HPM_P1;HPM_P2
2021/09/23 00:00:14;;;;;;;2.88;1.45;;;;;;;-149.78;100.00;50164.41;4859737;29;20043;-66
2021/09/23 00:05:11;;;;;;;4.40;1.42;;;;;;;-149.78;100.00;50178.09;4861418;29;20037;-66
2021/09/23 00:07:37;;;;;;;3.88;1.40;;;;;;;-149.78;100.00;50156.56;4861572;29;20041;-66
2021/09/23 00:10:04;;;;;;;5.03;1.70;;;;;;;-149.78;100.00;50178.09;4862246;29;20084;-66
2021/09/23 00:12:30;;;;;;;4.15;1.40;;;;;;;-149.78;100.00;50178.09;4859691;29;20037;-66
2021/09/23 00:14:55;;;;;;;8.18;1.90;;;;;;;-149.78;100.00;50180.03;4860705;29;20117;-67
2021/09/23 00:17:22;;;;;;;4.10;1.55;;;;;;;-149.78;100.00;50205.47;4843432;29;20086;-66
2021/09/23 00:19:47;;;;;;;4.22;1.60;;;;;;;-149.78;100.00;50158.53;4861933;29;20042;-66
2021/09/23 00:22:13;;;;;;;6.65;1.73;;;;;;;-149.78;100.00;50213.28;4861697;29;20374;-66
2021/09/23 00:24:39;;;;;;;2.55;1.42;;;;;;;-149.78;100.00;50197.66;4858443;29;20037;-66
2021/09/23 00:27:04;;;;;;;6.03;2.03;;;;;;;-149.78;100.00;50197.66;4857720;29;20041;-66
2021/09/23 00:29:30;;;;;;;3.38;1.90;;;;;;;-149.78;100.00;50158.53;4858229;29;20513;-66
2021/09/23 00:31:56;;;;;;;3.72;1.50;;;;;;;-149.78;100.00;50205.47;4856988;29;20030;-66
2021/09/23 00:34:21;;;;;;;3.78;1.65;;;;;;;-149.78;100.00;50166.34;4861058;29;20048;-66
2021/09/23 00:36:47;;;;;;;6.38;1.80;;;;;;;-149.78;100.00;50158.53;4858187;29;20034;-66
2021/09/23 00:39:14;;;;;;;4.88;1.40;;;;;;;-149.78;100.00;50201.56;4861077;29;20049;-66
2021/09/23 00:41:40;;;;;;;3.42;1.40;;;;;;;-149.78;100.00;50162.44;4860166;29;20044;-66
2021/09/23 00:44:16;;;;;;;4.45;1.52;;;;;;;-149.78;100.00;50158.53;4838610;29;20128;-66
2021/09/23 00:46:41;;;;;;;2.75;1.60;;;;;;;-149.78;100.00;50166.34;4860207;29;20069;-65
2021/09/23 00:49:07;;;;;;;5.20;1.70;;;;;;;-149.78;100.00;50182.00;4860323;29;20502;-66
2021/09/23 00:51:33;;;;;;;3.40;1.20;;;;;;;-149.78;100.00;50182.00;4859295;29;20174;-66
2021/09/23 00:53:58;;;;;;;4.45;1.48;;;;;;;-149.78;100.00;50168.31;4861571;29;20405;-66
2021/09/23 00:56:24;;;;;;;4.30;1.65;;;;;;;-149.78;100.00;50205.47;4860468;29;20374;-66
2021/09/23 00:58:49;;;;;;;3.45;1.65;;;;;;;-149.78;100.00;50178.09;4844770;29;20501;-66
2021/09/23 01:01:15;;;;;;;4.95;1.85;;;;;;;-149.78;100.00;50205.47;4851443;29;20602;-66
2021/09/23 01:03:41;;;;;;;6.30;1.58;;;;;;;-149.78;100.00;50146.81;4860310;29;20569;-66
2021/09/23 01:06:07;;;;;;;2.90;1.55;;;;;;;-149.78;100.00;50189.81;4859057;29;20053;-66
2021/09/23 01:08:32;;;;;;;5.75;1.63;;;;;;;-149.78;100.00;50197.66;4859603;29;20052;-66
2021/09/23 01:10:58;;;;;;;3.97;1.70;;;;;;;-149.78;100.00;50154.63;4859445;29;20040;-67
2021/09/23 01:13:24;;;;;;;2.22;1.52;;;;;;;-149.78;100.00;50219.16;4844255;29;20052;-66
2021/09/23 01:15:50;;;;;;;4.60;1.90;;;;;;;-149.78;100.00;50176.13;4843765;29;20041;-66
2021/09/23 01:18:17;;;;;;;11.48;1.95;;;;;;;-149.78;100.00;50178.09;4853427;29;20030;-66
2021/09/23 01:20:44;;;;;;;4.45;1.63;;;;;;;-149.78;100.00;50172.22;4853547;29;20120;-66
2021/09/23 01:23:10;;;;;;;4.45;2.33;;;;;;;-149.78;100.00;50172.22;4850839;29;20370;-66
2021/09/23 01:25:36;;;;;;;2.92;1.75;;;;;;;-149.78;100.00;50164.41;4855228;29;20044;-66
2021/09/23 01:28:05;;;;;;;3.80;1.80;;;;;;;-149.78;100.00;50213.28;4843830;29;20051;-67
2021/09/23 01:30:31;;;;;;;5.22;1.60;;;;;;;-149.78;100.00;50185.91;4860328;29;20478;-66
2021/09/23 01:32:56;;;;;;;4.20;1.65;;;;;;;-149.78;100.00;50225.03;4860568;29;20478;-67
2021/09/23 01:35:23;;;;;;;5.13;1.83;;;;;;;-149.78;100.00;50182.00;4857822;29;20074;-66
2021/09/23 01:37:49;;;;;;;5.30;2.33;;;;;;;-149.78;100.00;50201.56;4860640;29;20505;-66
2021/09/23 01:40:15;;;;;;;4.25;2.05;;;;;;;-149.78;100.00;50225.03;4860472;29;20053;-66
2021/09/23 01:42:42;;;;;;;3.58;1.63;;;;;;;-149.78;100.00;50180.03;4860139;29;20049;-66
2021/09/23 01:45:12;;;;;;;4.15;1.63;;;;;;;-149.78;100.00;50185.91;4852976;29;20052;-66
2021/09/23 01:47:38;;;;;;;2.85;1.77;;;;;;;-149.78;100.00;50162.44;4855424;29;20466;-66
2021/09/23 01:50:06;;;;;;;8.30;2.10;;;;;;;-149.78;100.00;50174.19;4848991;29;20045;-66
2021/09/23 01:52:32;;;;;;;2.33;1.67;;;;;;;-149.78;100.00;50197.66;4853182;29;20034;-66
2021/09/23 01:54:58;;;;;;;6.07;1.95;;;;;;;-149.78;100.00;50180.03;4842712;29;20478;-66
2021/09/23 01:57:23;;;;;;;2.65;1.70;;;;;;;-149.78;100.00;50183.97;4859353;29;20073;-66
2021/09/23 01:59:49;;;;;;;3.95;1.80;;;;;;;-149.78;100.00;50180.03;4860240;29;20042;-66
2021/09/23 02:02:14;;;;;;;7.65;2.03;;;;;;;-149.78;100.00;50172.22;4859256;29;20461;-67
2021/09/23 02:04:40;;;;;;;7.70;2.30;;;;;;;-149.78;100.00;50142.88;4858268;29;20037;-67
2021/09/23 02:07:06;;;;;;;2.67;1.67;;;;;;;-149.78;100.00;50185.91;4843863;29;20101;-66
2021/09/23 02:09:33;;;;;;;5.43;2.08;;;;;;;-149.78;100.00;50182.00;4857471;29;20050;-66
2021/09/23 02:12:07;;;;;;;5.32;2.03;;;;;;;-149.78;100.00;50189.81;4860047;29;20065;-66
2021/09/23 02:14:33;;;;;;;6.68;2.22;;;;;;;-149.78;100.00;50185.91;4863518;29;20180;-66
2021/09/23 02:16:58;;;;;;;3.50;2.00;;;;;;;-149.78;100.00;50178.09;4852080;29;20077;-66
2021/09/23 02:19:25;;;;;;;4.55;2.10;;;;;;;-149.78;100.00;50146.81;4861874;29;20045;-66
2021/09/23 02:21:51;;;;;;;5.22;2.05;;;;;;;-149.78;100.00;50170.25;4863666;29;20041;-66
2021/09/23 02:24:18;;;;;;;2.85;2.00;;;;;;;-149.78;100.00;50156.56;4861648;29;20042;-66
2021/09/23 02:26:44;;;;;;;3.65;1.63;;;;;;;-149.78;100.00;50217.19;4859754;29;20049;-67
2021/09/23 02:29:10;;;;;;;4.50;1.90;;;;;;;-149.78;100.00;50170.25;4862200;29;20049;-66
2021/09/23 02:31:35;;;;;;;4.80;1.70;;;;;;;-149.78;100.00;50142.88;4861288;29;20084;-66
2021/09/23 02:34:01;;;;;;;8.18;2.35;;;;;;;-149.78;100.00;50199.59;4863925;29;20073;-66
2021/09/23 02:36:26;;;;;;;3.25;1.52;;;;;;;-149.78;100.00;50176.13;4863107;29;20048;-67
2021/09/23 02:38:52;;;;;;;8.45;1.98;;;;;;;-149.78;100.00;50189.81;4863581;29;20085;-66
2021/09/23 02:41:17;;;;;;;3.85;1.70;;;;;;;-149.78;100.00;50172.22;4860258;29;20049;-66
2021/09/23 02:43:43;;;;;;;2.35;1.70;;;;;;;-149.78;100.00;50189.81;4858044;29;20045;-66
2021/09/23 02:46:09;;;;;;;4.75;2.13;;;;;;;-149.78;100.00;50162.44;4857252;29;20477;-66
2021/09/23 02:48:35;;;;;;;3.78;1.60;;;;;;;-149.78;100.00;50170.25;4841267;29;20053;-66
2021/09/23 02:51:00;;;;;;;5.13;1.65;;;;;;;-149.78;100.00;50197.66;4858479;29;20064;-67
2021/09/23 02:53:26;;;;;;;2.33;1.65;;;;;;;-149.78;100.00;50178.09;4860980;29;20045;-66
2021/09/23 02:55:52;;;;;;;5.18;1.75;;;;;;;-149.78;100.00;50174.19;4862507;29;20037;-67
2021/09/23 02:58:18;;;;;;;4.93;1.90;;;;;;;-149.78;100.00;50158.53;4845914;29;20090;-66
2021/09/23 03:00:44;;;;;;;3.50;1.80;;;;;;;-149.78;100.00;50138.97;4861746;29;20034;-66
2021/09/23 03:03:14;;;;;;;6.93;2.40;;;;;;;-149.78;100.00;50189.81;4860665;29;20053;-66
2021/09/23 03:05:40;;;;;;;4.22;1.90;;;;;;;-149.78;100.00;50152.66;4860187;29;20093;-66
2021/09/23 03:08:06;;;;;;;6.13;1.83;;;;;;;-149.78;100.00;50182.00;4843342;29;20120;-66
2021/09/23 03:10:31;;;;;;;3.05;1.90;;;;;;;-149.78;100.00;50189.81;4859713;29;20063;-66
2021/09/23 03:12:57;;;;;;;3.47;2.08;;;;;;;-149.78;100.00;50189.81;4862210;29;20045;-66
2021/09/23 03:15:24;;;;;;;5.93;2.70;;;;;;;-149.78;100.00;50183.97;4861099;29;20033;-66
2021/09/23 03:17:50;;;;;;;5.10;2.22;;;;;;;-149.78;100.00;50162.44;4844937;29;20045;-66
2021/09/23 03:20:17;;;;;;;6.03;2.65;;;;;;;-149.78;100.00;50201.56;4862832;29;20042;-66
2021/09/23 03:22:43;;;;;;;3.92;2.20;;;;;;;-149.78;100.00;50209.38;4862279;29;20120;-66
2021/09/23 03:25:09;;;;;;;6.38;2.88;;;;;;;-149.78;100.00;50199.59;4858921;29;20125;-66
2021/09/23 03:27:35;;;;;;;6.50;2.88;;;;;;;-149.78;100.00;50189.81;4844772;29;20093;-66
2021/09/23 03:30:01;;;;;;;4.63;2.78;;;;;;;-149.78;100.00;50182.00;4859946;29;20045;-66
2021/09/23 03:32:27;;;;;;;9.80;3.75;;;;;;;-149.78;100.00;50150.72;4856376;29;20128;-66
2021/09/23 03:34:52;;;;;;;7.35;3.00;;;;;;;-149.78;100.00;50215.25;4840553;29;20490;-66
2021/09/23 03:37:18;;;;;;;7.10;3.03;;;;;;;-149.78;100.00;50199.59;4855055;29;20583;-66
2021/09/23 03:39:44;;;;;;;8.57;3.38;;;;;;;-149.78;100.00;50205.47;4861235;29;20501;-65
2021/09/23 03:42:09;;;;;;;6.60;3.50;;;;;;;-149.78;100.00;50197.66;4862372;29;20045;-66
2021/09/23 03:44:35;;;;;;;4.93;3.10;;;;;;;-149.78;100.00;50178.09;4845443;29;20049;-66
2021/09/23 03:47:01;;;;;;;4.95;3.17;;;;;;;-149.78;100.00;50187.88;4845150;29;21250;-66
2021/09/23 03:49:27;;;;;;;9.93;3.30;;;;;;;-149.78;100.00;50197.66;4858179;29;20049;-66
2021/09/23 03:51:52;;;;;;;9.82;3.67;;;;;;;-149.78;100.00;50185.91;4861532;29;20037;-65
2021/09/23 03:54:18;;;;;;;6.18;3.38;;;;;;;-149.78;100.00;50217.19;4840371;29;20065;-65
2021/09/23 03:56:44;;;;;;;7.13;3.35;;;;;;;-149.78;100.00;50230.88;4857819;29;20129;-65
2021/09/23 03:59:10;;;;;;;5.45;3.10;;;;;;;-149.78;100.00;50205.47;4859780;29;20049;-66
2021/09/23 04:01:36;;;;;;;6.25;3.25;;;;;;;-149.78;100.00;50197.66;4861230;29;20038;-65
2021/09/23 04:04:02;;;;;;;5.28;3.13;;;;;;;-149.78;100.00;50213.28;4862005;29;20049;-65
2021/09/23 04:06:27;;;;;;;7.10;3.10;;;;;;;-149.78;100.00;50240.66;4859686;29;20037;-65
2021/09/23 04:08:53;;;;;;;6.25;3.40;;;;;;;-149.78;100.00;50201.56;4859811;29;20118;-65
2021/09/23 04:11:19;;;;;;;5.35;3.42;;;;;;;-149.78;100.00;50213.28;4844180;29;20524;-65
2021/09/23 04:13:44;;;;;;;7.65;3.25;;;;;;;-149.78;100.00;50182.00;4861090;29;20049;-66
2021/09/23 04:16:10;;;;;;;6.22;2.92;;;;;;;-149.78;100.00;50185.91;4860505;29;20049;-66
2021/09/23 04:18:35;;;;;;;9.18;3.35;;;;;;;-149.78;100.00;50236.75;4844169;29;20044;-65
2021/09/23 04:21:01;;;;;;;8.00;3.45;;;;;;;-149.78;100.00;50213.28;4857674;29;20508;-66
2021/09/23 04:23:27;;;;;;;7.57;3.78;;;;;;;-149.78;100.00;50209.38;4855536;29;20049;-66
2021/09/23 04:25:53;;;;;;;5.57;3.30;;;;;;;-149.78;100.00;50199.59;4860165;29;20037;-65
2021/09/23 04:28:18;;;;;;;12.63;3.70;;;;;;;-149.78;100.00;50185.91;4856284;29;20041;-65
2021/09/23 04:30:44;;;;;;;7.68;3.47;;;;;;;-149.78;100.00;50189.81;4860680;29;20045;-65
2021/09/23 04:33:09;;;;;;;11.55;3.60;;;;;;;-149.78;100.00;50189.81;4846920;29;20095;-66
2021/09/23 04:35:35;;;;;;;8.32;3.88;;;;;;;-149.78;100.00;50189.81;4854481;29;20049;-65
2021/09/23 04:38:02;;;;;;;9.85;4.07;;;;;;;-149.78;100.00;50185.91;4849681;29;20082;-65
2021/09/23 04:40:28;;;;;;;10.90;5.95;;;;;;;-149.78;100.00;50197.66;4858125;29;20498;-66
2021/09/23 04:42:53;;;;;;;6.28;3.58;;;;;;;-149.78;100.00;50201.56;4861007;29;20065;-65
2021/09/23 04:45:21;;;;;;;9.30;3.85;;;;;;;-149.78;100.00;50182.00;4858650;29;20033;-65
2021/09/23 04:47:46;;;;;;;9.15;4.60;;;;;;;-149.78;100.00;50197.66;4860903;29;20041;-65
2021/09/23 04:50:12;;;;;;;8.50;4.15;;;;;;;-149.78;100.00;50178.09;4860047;29;20121;-65
2021/09/23 04:52:38;;;;;;;9.00;4.70;;;;;;;-149.78;100.00;50197.66;4859625;29;20132;-65
2021/09/23 04:55:06;;;;;;;8.32;3.90;;;;;;;-149.78;100.00;50215.25;4861139;29;20124;-65
2021/09/23 04:57:34;;;;;;;10.43;4.40;;;;;;;-149.78;100.00;50209.38;4858856;29;20085;-65
2021/09/23 05:00:03;;;;;;;13.30;4.43;;;;;;;-149.78;100.00;50217.19;4861076;29;20040;-65
2021/09/23 05:02:31;;;;;;;9.73;4.03;;;;;;;-149.78;100.00;50193.72;4855954;29;20049;-65
2021/09/23 05:04:57;;;;;;;11.13;4.47;;;;;;;-149.78;100.00;50197.66;4849959;29;20050;-65
2021/09/23 05:07:23;;;;;;;9.10;4.25;;;;;;;-149.78;100.00;50185.91;4859433;29;20045;-65
2021/09/23 05:09:48;;;;;;;9.63;4.25;;;;;;;-149.78;100.00;50205.47;4836290;29;20046;-66
2021/09/23 05:12:14;;;;;;;11.52;4.75;;;;;;;-149.78;100.00;50205.47;4853178;29;20038;-66
2021/09/23 05:14:40;;;;;;;11.07;4.72;;;;;;;-149.78;100.00;50178.09;4858560;29;20093;-66
2021/09/23 05:17:06;;;;;;;8.23;4.13;;;;;;;-149.78;100.00;50225.03;4860781;29;20038;-65
2021/09/23 05:19:32;;;;;;;6.55;3.13;;;;;;;-149.78;100.00;50156.56;4859970;29;20128;-65
2021/09/23 05:21:57;;;;;;;9.15;3.58;;;;;;;-149.78;100.00;50178.09;4860656;29;20041;-66
2021/09/23 05:24:23;;;;;;;4.35;2.92;;;;;;;-149.78;100.00;50209.38;4859496;29;20056;-65
2021/09/23 05:26:48;;;;;;;6.00;2.90;;;;;;;-149.78;100.00;50189.81;4859015;29;20055;-65
2021/09/23 05:29:14;;;;;;;5.25;2.78;;;;;;;-149.78;100.00;50142.88;4860079;29;20128;-65
2021/09/23 05:31:40;;;;;;;4.63;2.70;;;;;;;-149.78;100.00;50174.19;4860435;29;20074;-65
2021/09/23 05:34:06;;;;;;;5.82;3.00;;;;;;;-149.78;100.00;50174.19;4858755;29;20037;-65
2021/09/23 05:36:32;;;;;;;5.97;2.70;;;;;;;-149.78;100.00;50158.53;4852999;29;20554;-65
2021/09/23 05:39:03;;;;;;;5.60;3.35;;;;;;;-149.78;100.00;50201.56;4853004;29;20046;-65
2021/09/23 05:41:28;;;;;;;4.85;2.78;;;;;;;-149.78;100.00;50170.25;4857096;29;20038;-65
2021/09/23 05:43:54;;;;;;;6.75;2.50;;;;;;;-149.78;100.00;50228.94;4858323;29;20048;-65
2021/09/23 05:46:20;;;;;;;9.73;3.28;;;;;;;-149.78;100.00;50170.25;4854006;29;20397;-65
2021/09/23 05:48:46;;;;;;;6.32;3.10;;;;;;;-149.78;100.00;50217.19;4853747;29;20122;-65
2021/09/23 05:51:11;;;;;;;8.05;2.58;;;;;;;-149.78;100.00;50189.81;4851586;29;20029;-65
2021/09/23 05:53:37;;;;;;;5.25;2.85;;;;;;;-149.78;100.00;50205.47;4859244;29;20065;-65
2021/09/23 05:56:03;;;;;;;6.28;3.22;;;;;;;-149.78;100.00;50201.56;4856919;29;20037;-65
2021/09/23 05:58:29;;;;;;;4.40;2.53;;;;;;;-149.78;100.00;50209.38;4860153;29;20044;-65
2021/09/23 06:00:55;;;;;;;9.27;3.83;;;;;;;-149.78;100.00;50174.19;4854452;29;20033;-65
2021/09/23 06:03:20;;;;;;;8.27;4.32;;;;;;;-149.78;100.00;50248.50;4854167;29;20413;-65
2021/09/23 06:05:47;;;;;;;8.07;3.78;;;;;;;-149.78;100.00;50203.50;4852359;29;20074;-65
2021/09/23 06:08:14;;;;;;;12.18;5.78;;;;;;;-149.78;100.00;50166.34;4854437;29;20034;-65
2021/09/23 06:10:40;;;;;;;15.73;8.32;;;;;;;-149.78;100.00;50174.19;4849476;29;20113;-65
2021/09/23 06:13:06;;;;;;;17.90;9.18;;;;;;;-149.78;100.00;50174.19;4854287;29;20083;-65
2021/09/23 06:15:33;;;;;;;17.25;9.57;;;;;;;-149.78;100.00;50217.19;4851513;29;20506;-66
2021/09/23 06:17:58;;;;;;;19.05;9.57;;;;;;;-149.78;100.00;50178.09;4854455;29;20034;-65
2021/09/23 06:20:25;;;;;;;16.02;9.57;;;;;;;-149.78;100.00;50217.19;4857329;29;20049;-65
2021/09/23 06:22:51;;;;;;;18.67;10.95;;;;;;;-149.78;100.00;50170.25;4838318;29;20113;-65
2021/09/23 06:25:17;;;;;;;21.70;11.40;;;;;;;-149.78;100.00;50178.09;4856734;29;20037;-66
2021/09/23 06:27:43;;;;;;;21.05;11.00;;;;;;;-149.78;100.00;50185.91;4858282;29;20043;-64
2021/09/23 06:30:12;;;;;;;17.98;9.80;;;;;;;-149.78;100.00;50197.66;4859677;29;20129;-68
2021/09/23 06:32:38;;;;;;;20.65;11.45;;;;;;;-149.78;100.00;50205.47;4857898;29;20107;-66
2021/09/23 06:35:04;;;;;;;18.35;10.68;;;;;;;-149.78;100.00;50170.25;4852180;29;20061;-67
2021/09/23 06:37:30;;;;;;;17.25;10.55;;;;;;;-149.78;100.00;50170.25;4852164;29;20037;-65
2021/09/23 06:39:56;;;;;;;14.27;8.50;;;;;;;-149.78;100.00;50180.03;4850251;29;20050;-65
2021/09/23 06:42:22;;;;;;;15.98;9.73;;;;;;;-149.78;100.00;50185.91;4822320;29;20113;-66
2021/09/23 06:44:47;;;;;;;19.85;9.57;;;;;;;-149.78;100.00;50189.81;4858994;29;20124;-65
2021/09/23 06:47:13;;;;;;;14.95;8.52;;;;;;;-149.78;100.00;50201.56;4850939;29;20066;-64
2021/09/23 06:49:39;;;;;;;11.82;6.90;;;;;;;-149.78;100.00;50209.38;4847267;29;20053;-65
2021/09/23 06:52:06;;;;;;;13.98;6.72;;;;;;;-149.78;100.00;50174.19;4854987;29;20053;-65
2021/09/23 06:54:31;;;;;;;9.85;6.28;;;;;;;-149.78;100.00;50205.47;4852217;29;21370;-66
2021/09/23 06:56:57;;;;;;;8.82;5.57;;;;;;;-149.78;100.00;50197.66;4852650;29;20037;-67
2021/09/23 06:59:22;;;;;;;6.55;3.88;;;;;;;-149.78;100.00;50203.50;4858012;29;20052;-66
2021/09/23 07:01:48;;;;;;;5.60;4.07;;;;;;;-149.78;100.00;50189.81;4855282;29;20098;-65
2021/09/23 07:04:15;;;;;;;7.28;4.53;;;;;;;-149.78;100.00;50197.66;4854976;29;20501;-64
2021/09/23 07:06:41;;;;;;;6.80;4.38;;;;;;;-149.78;100.00;50180.03;4849931;29;20428;-65
2021/09/23 07:09:08;;;;;;;6.85;4.72;;;;;;;-149.78;100.00;50162.44;4856655;29;20382;-65
2021/09/23 07:11:35;;;;;;;5.72;4.15;;;;;;;-149.78;100.00;50195.69;4849622;29;20056;-66
2021/09/23 07:14:01;;;;;;;6.43;4.85;;;;;;;-149.78;100.00;50182.00;4854303;29;20470;-66
2021/09/23 07:16:27;;;;;;;5.35;3.80;;;;;;;-149.78;100.00;50182.00;4861183;29;20485;-66
2021/09/23 07:18:53;;;;;;;4.32;3.17;;;;;;;-149.78;100.00;50164.41;4853367;29;20049;-66
2021/09/23 07:21:19;;;;;;;4.00;2.95;;;;;;;-149.78;100.00;50205.47;4848986;29;20033;-66
2021/09/23 07:23:45;;;;;;;4.40;2.75;;;;;;;-149.78;100.00;50217.19;4852229;29;20034;-66
2021/09/23 07:26:11;;;;;;;5.10;2.42;;;;;;;-149.78;100.00;50189.81;4856472;29;20489;-66
2021/09/23 07:28:37;;;;;;;4.07;2.30;;;;;;;-149.78;100.00;50138.97;4851673;29;20073;-66
2021/09/23 07:31:03;;;;;;;5.47;2.40;;;;;;;-149.78;100.00;50185.91;4858546;29;20053;-66
2021/09/23 07:33:29;;;;;;;3.88;2.13;;;;;;;-149.78;100.00;50162.44;4862196;29;20041;-67
2021/09/23 07:35:56;;;;;;;2.95;2.30;;;;;;;-149.78;100.00;50166.34;4858363;29;20041;-68
2021/09/23 07:38:21;;;;;;;4.15;2.40;;;;;;;-149.78;100.00;50178.09;4850610;29;20348;-65
2021/09/23 07:40:47;;;;;;;4.07;2.00;;;;;;;-149.78;100.00;50090.09;4849599;29;20057;-66
2021/09/23 07:43:13;;;;;;;1.55;1.45;;;;;;;-149.78;100.00;50064.66;4860652;29;20467;-67
2021/09/23 07:45:39;;;;;;;2.55;1.40;;;;;;;-149.78;100.00;50060.75;4856172;29;20094;-67
2021/09/23 07:48:05;;;;;;;2.88;1.67;;;;;;;-149.78;100.00;50002.09;4844800;29;20105;-67
2021/09/23 07:50:30;;;;;;;2.55;1.50;;;;;;;-149.78;100.00;49982.53;4854530;29;20123;-67
2021/09/23 07:52:56;;;;;;;4.03;1.60;;;;;;;-149.78;77.44;50002.09;4861654;29;20038;-67
2021/09/23 07:55:22;;;;;;;4.18;1.48;;;;;;;-149.78;68.34;49955.16;4859764;29;20052;-67
2021/09/23 07:57:48;;;;;;;2.05;1.10;;;;;;;-149.78;62.22;49951.25;4860668;29;20052;-67
2021/09/23 08:00:15;;;;;;;2.92;1.05;;;;;;;-149.78;61.42;49935.59;4860627;29;20037;-67
2021/09/23 08:02:41;;;;;;;2.17;1.55;;;;;;;-149.78;58.42;49962.97;4855111;29;20124;-67
2021/09/23 08:05:08;;;;;;;1.42;1.23;;;;;;;-149.78;60.38;49978.63;4861605;29;20166;-67
2021/09/23 08:07:34;;;;;;;4.93;1.40;;;;;;;-149.78;59.63;49978.63;4843720;29;20112;-67
2021/09/23 08:09:59;;;;;;;2.78;1.45;;;;;;;-149.78;57.27;49904.31;4844464;29;20045;-67
2021/09/23 08:12:27;;;;;;;3.13;1.10;;;;;;;-149.78;53.27;49880.84;4843687;29;20041;-67
2021/09/23 08:14:53;;;;;;;3.05;1.42;;;;;;;-149.78;52.12;49841.72;4851462;29;20038;-67
2021/09/23 08:17:19;;;;;;;3.45;1.17;;;;;;;-149.78;51.12;49863.25;4857526;29;20037;-67
2021/09/23 08:19:44;;;;;;;2.08;1.38;;;;;;;-149.78;51.75;49865.19;4861493;29;20394;-67
2021/09/23 08:22:10;;;;;;;2.03;1.27;;;;;;;-149.78;50.01;49845.66;4859410;29;20033;-69
2021/09/23 08:24:36;;;;;;;2.50;1.35;;;;;;;-149.78;50.36;49830.00;4861076;29;20069;-68
2021/09/23 08:27:02;;;;;;;4.40;1.23;;;;;;;-149.78;50.61;49876.94;4860320;29;20390;-65
2021/09/23 08:29:28;;;;;;;2.42;1.35;;;;;;;-149.78;48.99;49884.75;4858276;29;20040;-67
2021/09/23 08:31:55;;;;;;;2.30;0.95;;;;;;;-149.78;49.66;49861.28;4861155;29;20164;-68
2021/09/23 08:34:21;;;;;;;1.65;0.90;;;;;;;-149.78;50.04;49951.25;4860063;29;20097;-67
2021/09/23 08:36:47;;;;;;;1.27;0.90;;;;;;;-149.78;54.74;49959.06;4860298;29;20481;-68
2021/09/23 08:39:13;;;;;;;1.20;0.82;;;;;;;-149.78;58.55;49972.75;4859930;29;20116;-67
2021/09/23 08:41:39;;;;;;;4.20;1.13;;;;;;;-149.78;60.50;50056.84;4849046;29;20081;-67
2021/09/23 08:44:05;;;;;;;1.48;0.85;;;;;;;-149.78;63.15;49982.53;4851790;29;20045;-67
2021/09/23 08:46:33;;;;;;;3.00;0.82;;;;;;;-149.78;62.92;50000.13;4859070;29;20427;-68
2021/09/23 08:49:01;;;;;;;1.70;1.05;;;;;;;-149.78;59.33;49947.34;4869113;29;20099;-67
2021/09/23 08:51:29;;;;;;;2.25;1.25;;;;;;;-149.78;55.89;49982.53;4857389;29;20092;-67
2021/09/23 08:53:54;;;;;;;2.22;1.13;;;;;;;-149.78;56.47;49931.69;4853873;29;20546;-67
2021/09/23 08:56:21;;;;;;;1.73;0.85;;;;;;;-149.78;55.75;49955.16;4860152;29;20038;-67
2021/09/23 08:58:47;;;;;;;3.58;0.90;;;;;;;-149.78;52.82;49900.41;4859415;29;20078;-67
2021/09/23 09:01:17;;;;;;;2.03;0.90;;;;;;;-149.78;51.41;49908.22;4860671;29;20057;-67
2021/09/23 09:03:43;;;;;;;1.77;1.30;;;;;;;-149.78;50.38;49910.19;4848497;29;20440;-67
2021/09/23 09:06:14;;;;;;;4.10;0.90;;;;;;;-149.78;49.91;49947.34;4860148;29;20173;-66
2021/09/23 09:08:42;;;;;;;2.45;1.00;;;;;;;-149.78;51.35;49904.31;4859409;29;20120;-67
2021/09/23 09:11:12;;;;;;;1.77;1.05;;;;;;;-149.78;50.50;49904.31;4851323;29;20128;-66
2021/09/23 09:13:41;;;;;;;2.53;1.00;;;;;;;-149.78;50.44;49961.03;4861198;29;20389;-66
2021/09/23 09:16:24;;;;;;;3.55;1.13;;;;;;;-149.78;51.95;49916.03;4850364;29;20466;-66
2021/09/23 09:18:51;;;;;;;1.73;0.90;;;;;;;-149.78;52.28;49927.78;4858669;29;20037;-66
2021/09/23 09:21:20;;;;;;;2.90;1.17;;;;;;;-149.78;52.05;49959.06;4861131;29;20037;-66
2021/09/23 09:23:55;;;;;;;3.38;1.33;;;;;;;-149.78;53.15;49990.34;4842899;29;20415;-66
2021/09/23 09:26:32;;;;;;;2.05;1.00;;;;;;;-149.78;54.26;49959.06;4859296;29;20390;-66
2021/09/23 09:29:01;;;;;;;2.78;1.00;;;;;;;-149.78;55.75;50002.09;4857503;29;20044;-66
2021/09/23 09:31:30;;;;;;;1.45;1.10;;;;;;;-149.78;55.38;49982.53;4858997;29;20033;-66
2021/09/23 09:34:01;;;;;;;4.85;1.45;;;;;;;-149.78;55.62;49976.66;4858553;29;20414;-66
2021/09/23 09:36:38;;;;;;;2.38;1.20;;;;;;;-149.78;55.32;50009.91;4857448;29;20034;-66
2021/09/23 09:39:05;;;;;;;1.88;1.08;;;;;;;-149.78;56.76;50052.94;4859260;29;20037;-66
2021/09/23 09:41:34;;;;;;;2.33;1.10;;;;;;;-149.78;57.46;50041.19;4856496;29;20458;-66
2021/09/23 09:44:03;;;;;;;3.03;1.20;;;;;;;-149.78;58.64;50013.81;4859373;29;20040;-65
2021/09/23 09:46:34;;;;;;;1.73;1.08;;;;;;;-149.78;60.44;50021.63;4857253;29;20116;-66
2021/09/23 09:49:00;;;;;;;1.67;1.13;;;;;;;-149.78;62.30;50027.50;4860788;29;20034;-65
2021/09/23 09:51:46;;;;;;;4.80;1.30;;;;;;;-149.78;62.98;50054.88;4847444;29;20486;-65
2021/09/23 09:54:13;;;;;;;3.67;1.23;;;;;;;-149.78;62.94;50033.38;4849302;29;20042;-65
2021/09/23 09:56:41;;;;;;;1.20;1.10;;;;;;;-149.78;59.59;50025.56;4858965;29;20419;-65
2021/09/23 09:59:14;;;;;;;3.90;1.33;;;;;;;-149.78;57.59;50015.78;4847214;29;20026;-66
2021/09/23 10:01:49;;;;;;;4.00;1.98;;;;;;;-149.78;58.75;50029.47;4859933;29;20049;-65
2021/09/23 10:04:16;;;;;;;2.65;1.35;;;;;;;-149.78;57.46;50047.06;4848200;29;20038;-66
2021/09/23 10:06:43;;;;;;;3.67;1.23;;;;;;;-149.78;58.92;50023.59;4842896;29;20070;-65
2021/09/23 10:09:11;;;;;;;1.70;0.90;;;;;;;-149.78;56.34;50052.94;4854376;29;20026;-65
2021/09/23 10:11:40;;;;;;;2.42;1.00;;;;;;;-149.78;55.52;50002.09;4852285;29;20041;-65
2021/09/23 10:14:06;;;;;;;4.60;1.20;;;;;;;-149.78;54.48;50009.91;4844043;29;20037;-65
2021/09/23 10:16:32;;;;;;;5.75;1.50;;;;;;;-149.78;54.40;50006.00;4865936;29;20056;-65
2021/09/23 10:18:58;;;;;;;3.95;1.17;;;;;;;-149.78;52.72;50009.91;4858096;29;20088;-66
2021/09/23 10:21:26;;;;;;;2.53;1.23;;;;;;;-149.78;53.44;49996.22;4859241;29;20475;-66
2021/09/23 10:23:53;;;;;;;2.85;1.40;;;;;;;-149.78;53.79;50009.91;4858588;29;20048;-65
2021/09/23 10:26:24;;;;;;;8.13;1.35;;;;;;;-149.78;54.97;50033.38;4858353;29;20072;-66
2021/09/23 10:44:01;;;;;;;1.95;1.00;;;;;;;-149.78;47.26;49929.72;5625855;24;20066;31
2021/09/23 10:46:28;;;;;;;3.70;1.20;;;;;;;-149.78;47.73;49908.22;4837018;29;25074;-66
2021/09/23 10:48:55;;;;;;;4.65;1.30;;;;;;;-149.78;45.48;49927.78;4830823;29;20082;-66
2021/09/23 10:51:21;;;;;;;3.55;1.10;;;;;;;-149.78;45.43;49896.50;4845227;29;20046;-66
2021/09/23 10:53:55;;;;;;;4.50;1.23;;;;;;;-149.78;45.77;49896.50;4838932;29;20034;-66
2021/09/23 10:56:22;;;;;;;1.70;1.20;;;;;;;-149.78;46.20;49916.03;4825304;29;20513;-65
2021/09/23 10:58:50;;;;;;;3.30;1.10;;;;;;;-149.78;46.98;49962.97;4832465;29;20034;-65
2021/09/23 11:01:26;;;;;;;4.82;1.67;;;;;;;-149.78;49.34;49939.50;4843746;29;20066;-65
2021/09/23 11:03:56;;;;;;;4.05;1.30;;;;;;;-149.78;48.67;49949.28;4827268;29;20039;-65
2021/09/23 11:06:32;;;;;;;5.07;1.45;;;;;;;-149.78;48.74;49919.94;4836684;29;20045;-65
2021/09/23 11:09:18;;;;;;;3.60;1.55;;;;;;;-149.78;49.93;49994.25;4828061;29;20555;-65
2021/09/23 11:11:49;;;;;;;5.75;1.95;;;;;;;-149.78;49.82;49927.78;4843705;29;20049;-65
2021/09/23 11:14:16;;;;;;;6.63;1.63;;;;;;;-149.78;49.57;49978.63;4842823;29;20108;-65
2021/09/23 11:16:53;;;;;;;3.00;1.40;;;;;;;-149.78;51.06;49951.25;4841928;29;20041;-65
2021/09/23 11:19:21;;;;;;;5.43;1.50;;;;;;;-149.78;51.59;49970.78;4834120;29;20045;-65
2021/09/23 11:21:48;;;;;;;3.83;1.70;;;;;;;-149.78;52.88;50013.81;4844101;29;20050;-65
2021/09/23 11:24:15;;;;;;;3.05;1.40;;;;;;;-149.78;53.99;50013.81;4836886;29;20531;-65
2021/09/23 11:26:42;;;;;;;3.95;1.48;;;;;;;-149.78;57.04;50021.63;4836173;29;20046;-65